Austin, Texas
Traffic Map
Current Weather Conditions
Austin, Texas
Overcast
Overcast
62°
Feels Like: 62°
Wind Chill: 62° Ceiling: 2200
Heat Index: 62° Visibility: 10mi
Dew Point: 51° Wind: 9mph
Humidity: 67% Direction: 290° (WNW)
Pressure: 29.92in Gusts: 0mph
Raw Report DataKATT 281151Z AUTO 29008KT 10SM FEW017 OVC022 17/11 A2992 RMK AO2 SLP123 T01670106 10189 20167 53013
Traffic Incident Summary
Active as of:
Severity:
Category:
InformationThere was an issue retrieving the traffic information for this location. Please try a different location or try again shortly.
Advertisements
Track Severe Weather on mobile